sensor_id;sensor_type;location;lat;lon;timestamp;temperature;humidity
13572;DHT22;6857;53.484;10.216;2023-02-02T00:00:52;5.80;99.90
13572;DHT22;6857;53.484;10.216;2023-02-02T00:03:18;5.80;99.90
13572;DHT22;6857;53.484;10.216;2023-02-02T00:05:45;5.70;99.90
13572;DHT22;6857;53.484;10.216;2023-02-02T00:08:11;5.60;99.90
13572;DHT22;6857;53.484;10.216;2023-02-02T00:10:37;5.60;99.90
13572;DHT22;6857;53.484;10.216;2023-02-02T00:13:02;5.70;99.90
13572;DHT22;6857;53.484;10.216;2023-02-02T00:15:28;5.70;99.90
13572;DHT22;6857;53.484;10.216;2023-02-02T00:17:53;5.80;99.90
13572;DHT22;6857;53.484;10.216;2023-02-02T00:20:19;5.70;99.90
13572;DHT22;6857;53.484;10.216;2023-02-02T00:22:46;5.70;99.90
13572;DHT22;6857;53.484;10.216;2023-02-02T00:25:11;5.70;99.90
13572;DHT22;6857;53.484;10.216;2023-02-02T00:27:37;5.70;99.90
13572;DHT22;6857;53.484;10.216;2023-02-02T00:30:03;5.70;99.90
13572;DHT22;6857;53.484;10.216;2023-02-02T00:32:30;5.70;99.90
13572;DHT22;6857;53.484;10.216;2023-02-02T00:34:55;5.70;99.90
13572;DHT22;6857;53.484;10.216;2023-02-02T00:37:21;5.90;99.90
13572;DHT22;6857;53.484;10.216;2023-02-02T00:39:46;5.80;99.90
13572;DHT22;6857;53.484;10.216;2023-02-02T00:42:12;5.90;99.90
13572;DHT22;6857;53.484;10.216;2023-02-02T00:44:37;5.90;99.90
13572;DHT22;6857;53.484;10.216;2023-02-02T00:47:22;6.00;99.90
13572;DHT22;6857;53.484;10.216;2023-02-02T00:49:47;6.00;99.90
13572;DHT22;6857;53.484;10.216;2023-02-02T00:52:13;5.90;99.90
13572;DHT22;6857;53.484;10.216;2023-02-02T00:54:39;5.90;99.90
13572;DHT22;6857;53.484;10.216;2023-02-02T00:57:04;5.90;99.90
13572;DHT22;6857;53.484;10.216;2023-02-02T00:59:30;5.90;99.90
13572;DHT22;6857;53.484;10.216;2023-02-02T01:01:56;6.00;99.90
13572;DHT22;6857;53.484;10.216;2023-02-02T01:04:21;6.00;99.90
13572;DHT22;6857;53.484;10.216;2023-02-02T01:06:47;6.00;99.90
13572;DHT22;6857;53.484;10.216;2023-02-02T01:09:12;6.00;99.90
13572;DHT22;6857;53.484;10.216;2023-02-02T01:11:38;5.90;99.90
13572;DHT22;6857;53.484;10.216;2023-02-02T01:14:04;5.90;99.90
13572;DHT22;6857;53.484;10.216;2023-02-02T01:16:29;6.00;99.90
13572;DHT22;6857;53.484;10.216;2023-02-02T01:18:55;6.00;99.90
13572;DHT22;6857;53.484;10.216;2023-02-02T01:21:21;6.00;99.90
13572;DHT22;6857;53.484;10.216;2023-02-02T01:23:46;6.00;99.90
13572;DHT22;6857;53.484;10.216;2023-02-02T01:26:13;5.90;99.90
13572;DHT22;6857;53.484;10.216;2023-02-02T01:28:39;5.90;99.90
13572;DHT22;6857;53.484;10.216;2023-02-02T01:31:11;6.00;99.90
13572;DHT22;6857;53.484;10.216;2023-02-02T01:33:37;6.00;99.90
13572;DHT22;6857;53.484;10.216;2023-02-02T01:36:08;6.00;99.90
13572;DHT22;6857;53.484;10.216;2023-02-02T01:38:35;6.00;99.90
13572;DHT22;6857;53.484;10.216;2023-02-02T01:41:01;6.00;99.90
13572;DHT22;6857;53.484;10.216;2023-02-02T01:43:48;6.00;99.90
13572;DHT22;6857;53.484;10.216;2023-02-02T01:46:19;6.00;99.90
13572;DHT22;6857;53.484;10.216;2023-02-02T01:48:48;6.00;99.90
13572;DHT22;6857;53.484;10.216;2023-02-02T01:51:22;6.00;99.90
13572;DHT22;6857;53.484;10.216;2023-02-02T01:53:52;6.00;99.90
13572;DHT22;6857;53.484;10.216;2023-02-02T01:56:35;6.00;99.90
13572;DHT22;6857;53.484;10.216;2023-02-02T01:59:02;5.90;99.90
13572;DHT22;6857;53.484;10.216;2023-02-02T02:01:28;5.80;99.90
13572;DHT22;6857;53.484;10.216;2023-02-02T02:03:54;5.70;99.90
13572;DHT22;6857;53.484;10.216;2023-02-02T02:06:20;5.60;99.90
13572;DHT22;6857;53.484;10.216;2023-02-02T02:09:02;5.60;99.90
13572;DHT22;6857;53.484;10.216;2023-02-02T02:11:29;5.70;99.90
13572;DHT22;6857;53.484;10.216;2023-02-02T02:13:57;5.50;99.90
13572;DHT22;6857;53.484;10.216;2023-02-02T02:17:41;5.50;99.90
13572;DHT22;6857;53.484;10.216;2023-02-02T02:32:24;5.60;99.90
13572;DHT22;6857;53.484;10.216;2023-02-02T02:38:14;5.60;99.90
13572;DHT22;6857;53.484;10.216;2023-02-02T02:40:46;5.60;99.90
13572;DHT22;6857;53.484;10.216;2023-02-02T02:43:15;5.50;99.90
13572;DHT22;6857;53.484;10.216;2023-02-02T02:45:42;5.50;99.90
13572;DHT22;6857;53.484;10.216;2023-02-02T02:48:09;5.40;99.90
13572;DHT22;6857;53.484;10.216;2023-02-02T02:50:35;5.40;99.90
13572;DHT22;6857;53.484;10.216;2023-02-02T02:53:05;5.40;99.90
13572;DHT22;6857;53.484;10.216;2023-02-02T02:58:27;5.50;99.90
13572;DHT22;6857;53.484;10.216;2023-02-02T03:01:01;5.50;99.90
13572;DHT22;6857;53.484;10.216;2023-02-02T03:03:40;5.40;99.90
13572;DHT22;6857;53.484;10.216;2023-02-02T03:06:21;5.40;99.90
13572;DHT22;6857;53.484;10.216;2023-02-02T03:08:54;5.40;99.90
13572;DHT22;6857;53.484;10.216;2023-02-02T03:11:21;5.50;99.90
13572;DHT22;6857;53.484;10.216;2023-02-02T03:13:47;5.50;99.90
13572;DHT22;6857;53.484;10.216;2023-02-02T03:16:14;5.60;99.90
13572;DHT22;6857;53.484;10.216;2023-02-02T03:18:40;5.60;99.90
13572;DHT22;6857;53.484;10.216;2023-02-02T03:21:06;5.60;99.90
13572;DHT22;6857;53.484;10.216;2023-02-02T03:23:31;5.60;99.90
13572;DHT22;6857;53.484;10.216;2023-02-02T03:25:57;5.60;99.90
13572;DHT22;6857;53.484;10.216;2023-02-02T03:28:24;5.70;99.90
13572;DHT22;6857;53.484;10.216;2023-02-02T03:30:50;5.80;99.90
13572;DHT22;6857;53.484;10.216;2023-02-02T03:33:17;5.70;99.90
13572;DHT22;6857;53.484;10.216;2023-02-02T03:35:43;5.80;99.90
13572;DHT22;6857;53.484;10.216;2023-02-02T03:38:09;5.80;99.90
13572;DHT22;6857;53.484;10.216;2023-02-02T03:40:37;5.80;99.90
13572;DHT22;6857;53.484;10.216;2023-02-02T03:43:02;6.10;99.90
13572;DHT22;6857;53.484;10.216;2023-02-02T03:45:28;5.80;99.90
13572;DHT22;6857;53.484;10.216;2023-02-02T03:47:54;5.80;99.90
13572;DHT22;6857;53.484;10.216;2023-02-02T03:50:20;5.90;99.90
13572;DHT22;6857;53.484;10.216;2023-02-02T03:52:46;5.90;99.90
13572;DHT22;6857;53.484;10.216;2023-02-02T03:55:11;5.90;99.90
13572;DHT22;6857;53.484;10.216;2023-02-02T03:57:37;5.90;99.90
13572;DHT22;6857;53.484;10.216;2023-02-02T04:00:03;5.90;99.90
13572;DHT22;6857;53.484;10.216;2023-02-02T04:02:29;5.90;99.90
13572;DHT22;6857;53.484;10.216;2023-02-02T04:04:54;5.80;99.90
13572;DHT22;6857;53.484;10.216;2023-02-02T04:07:20;5.80;99.90
13572;DHT22;6857;53.484;10.216;2023-02-02T04:09:46;5.80;99.90
13572;DHT22;6857;53.484;10.216;2023-02-02T04:12:11;5.80;99.90
13572;DHT22;6857;53.484;10.216;2023-02-02T04:14:37;5.80;99.90
13572;DHT22;6857;53.484;10.216;2023-02-02T04:17:02;5.80;99.90
13572;DHT22;6857;53.484;10.216;2023-02-02T04:19:28;5.80;99.90
13572;DHT22;6857;53.484;10.216;2023-02-02T04:21:53;5.90;99.90
13572;DHT22;6857;53.484;10.216;2023-02-02T04:24:19;5.80;99.90
13572;DHT22;6857;53.484;10.216;2023-02-02T04:26:44;5.80;99.90
13572;DHT22;6857;53.484;10.216;2023-02-02T04:29:10;5.80;99.90
13572;DHT22;6857;53.484;10.216;2023-02-02T04:31:35;5.70;99.90
13572;DHT22;6857;53.484;10.216;2023-02-02T04:34:01;6.10;99.90
13572;DHT22;6857;53.484;10.216;2023-02-02T04:36:27;5.70;99.90
13572;DHT22;6857;53.484;10.216;2023-02-02T04:38:53;5.70;99.90
13572;DHT22;6857;53.484;10.216;2023-02-02T04:41:20;5.70;99.90
13572;DHT22;6857;53.484;10.216;2023-02-02T04:43:46;5.60;99.90
13572;DHT22;6857;53.484;10.216;2023-02-02T04:46:13;5.60;99.90
13572;DHT22;6857;53.484;10.216;2023-02-02T04:48:39;5.50;99.90
13572;DHT22;6857;53.484;10.216;2023-02-02T04:51:11;5.40;99.90
13572;DHT22;6857;53.484;10.216;2023-02-02T04:53:37;5.30;99.90
13572;DHT22;6857;53.484;10.216;2023-02-02T04:56:16;5.30;99.90
13572;DHT22;6857;53.484;10.216;2023-02-02T04:58:43;5.30;99.90
13572;DHT22;6857;53.484;10.216;2023-02-02T05:01:17;5.10;99.90
13572;DHT22;6857;53.484;10.216;2023-02-02T05:03:43;5.10;99.90
13572;DHT22;6857;53.484;10.216;2023-02-02T05:06:09;5.10;99.90
13572;DHT22;6857;53.484;10.216;2023-02-02T05:08:35;5.10;99.90
13572;DHT22;6857;53.484;10.216;2023-02-02T05:11:09;5.10;99.90
13572;DHT22;6857;53.484;10.216;2023-02-02T05:13:35;5.10;99.90
13572;DHT22;6857;53.484;10.216;2023-02-02T05:16:01;5.10;99.90
13572;DHT22;6857;53.484;10.216;2023-02-02T05:18:27;5.10;99.90
13572;DHT22;6857;53.484;10.216;2023-02-02T05:20:53;5.10;99.90
13572;DHT22;6857;53.484;10.216;2023-02-02T05:23:19;5.20;99.90
13572;DHT22;6857;53.484;10.216;2023-02-02T05:25:51;5.20;99.90
13572;DHT22;6857;53.484;10.216;2023-02-02T05:28:17;5.10;99.90
13572;DHT22;6857;53.484;10.216;2023-02-02T05:30:43;5.10;99.90
13572;DHT22;6857;53.484;10.216;2023-02-02T05:33:08;5.10;99.90
13572;DHT22;6857;53.484;10.216;2023-02-02T05:35:34;5.10;99.90
13572;DHT22;6857;53.484;10.216;2023-02-02T05:38:00;5.10;99.90
13572;DHT22;6857;53.484;10.216;2023-02-02T05:40:25;5.10;99.90
13572;DHT22;6857;53.484;10.216;2023-02-02T05:42:51;5.00;99.90
13572;DHT22;6857;53.484;10.216;2023-02-02T05:45:16;4.80;99.90
13572;DHT22;6857;53.484;10.216;2023-02-02T05:47:42;4.80;99.90
13572;DHT22;6857;53.484;10.216;2023-02-02T05:50:08;4.80;99.90
13572;DHT22;6857;53.484;10.216;2023-02-02T05:52:34;4.80;99.90
13572;DHT22;6857;53.484;10.216;2023-02-02T05:55:01;4.80;99.90
13572;DHT22;6857;53.484;10.216;2023-02-02T05:57:27;4.70;99.90
13572;DHT22;6857;53.484;10.216;2023-02-02T05:59:53;4.60;99.90
13572;DHT22;6857;53.484;10.216;2023-02-02T06:02:19;4.70;99.90
13572;DHT22;6857;53.484;10.216;2023-02-02T06:04:44;4.70;99.90
13572;DHT22;6857;53.484;10.216;2023-02-02T06:07:10;4.70;99.90
13572;DHT22;6857;53.484;10.216;2023-02-02T06:09:36;4.80;99.90
13572;DHT22;6857;53.484;10.216;2023-02-02T06:12:02;4.90;99.90
13572;DHT22;6857;53.484;10.216;2023-02-02T06:14:28;4.90;99.90
13572;DHT22;6857;53.484;10.216;2023-02-02T06:16:53;5.00;99.90
13572;DHT22;6857;53.484;10.216;2023-02-02T06:19:19;5.00;99.90
13572;DHT22;6857;53.484;10.216;2023-02-02T06:21:44;5.00;99.90
13572;DHT22;6857;53.484;10.216;2023-02-02T06:24:10;5.00;99.90
13572;DHT22;6857;53.484;10.216;2023-02-02T06:26:35;5.10;99.90
13572;DHT22;6857;53.484;10.216;2023-02-02T06:29:01;5.10;99.90
13572;DHT22;6857;53.484;10.216;2023-02-02T06:31:27;5.10;99.90
13572;DHT22;6857;53.484;10.216;2023-02-02T06:33:57;5.10;99.90
13572;DHT22;6857;53.484;10.216;2023-02-02T06:36:27;5.20;99.90
13572;DHT22;6857;53.484;10.216;2023-02-02T06:38:53;5.20;99.90
13572;DHT22;6857;53.484;10.216;2023-02-02T06:41:19;5.20;99.90
13572;DHT22;6857;53.484;10.216;2023-02-02T06:43:46;5.20;99.90
13572;DHT22;6857;53.484;10.216;2023-02-02T06:46:12;5.30;99.90
13572;DHT22;6857;53.484;10.216;2023-02-02T06:48:38;5.30;99.90
13572;DHT22;6857;53.484;10.216;2023-02-02T06:51:04;5.30;99.90
13572;DHT22;6857;53.484;10.216;2023-02-02T06:53:31;5.30;99.90
13572;DHT22;6857;53.484;10.216;2023-02-02T06:56:02;5.30;99.90
13572;DHT22;6857;53.484;10.216;2023-02-02T06:58:29;5.30;99.90
13572;DHT22;6857;53.484;10.216;2023-02-02T07:01:07;5.40;99.90
13572;DHT22;6857;53.484;10.216;2023-02-02T07:03:34;5.50;99.90
13572;DHT22;6857;53.484;10.216;2023-02-02T07:06:12;5.30;99.90
13572;DHT22;6857;53.484;10.216;2023-02-02T07:08:38;5.30;99.90
13572;DHT22;6857;53.484;10.216;2023-02-02T07:11:04;5.40;99.90
13572;DHT22;6857;53.484;10.216;2023-02-02T07:13:29;5.40;99.90
13572;DHT22;6857;53.484;10.216;2023-02-02T07:15:55;5.20;99.90
13572;DHT22;6857;53.484;10.216;2023-02-02T07:18:21;5.30;99.90
13572;DHT22;6857;53.484;10.216;2023-02-02T07:20:47;5.30;99.90
13572;DHT22;6857;53.484;10.216;2023-02-02T07:23:13;5.40;99.90
13572;DHT22;6857;53.484;10.216;2023-02-02T07:25:38;5.30;99.90
13572;DHT22;6857;53.484;10.216;2023-02-02T07:28:04;5.30;99.90
13572;DHT22;6857;53.484;10.216;2023-02-02T07:30:29;5.30;99.90
13572;DHT22;6857;53.484;10.216;2023-02-02T07:32:55;5.30;99.90
13572;DHT22;6857;53.484;10.216;2023-02-02T07:35:21;5.30;99.90
13572;DHT22;6857;53.484;10.216;2023-02-02T07:37:51;5.40;99.90
13572;DHT22;6857;53.484;10.216;2023-02-02T07:40:18;5.50;99.90
13572;DHT22;6857;53.484;10.216;2023-02-02T07:42:45;5.50;99.90
13572;DHT22;6857;53.484;10.216;2023-02-02T07:45:11;5.50;99.90
13572;DHT22;6857;53.484;10.216;2023-02-02T07:47:37;5.50;99.90
13572;DHT22;6857;53.484;10.216;2023-02-02T07:50:02;5.50;99.90
13572;DHT22;6857;53.484;10.216;2023-02-02T07:52:28;5.50;99.90
13572;DHT22;6857;53.484;10.216;2023-02-02T07:54:54;5.50;99.90
13572;DHT22;6857;53.484;10.216;2023-02-02T07:57:19;5.50;99.90
13572;DHT22;6857;53.484;10.216;2023-02-02T07:59:45;5.50;99.90
13572;DHT22;6857;53.484;10.216;2023-02-02T08:02:11;5.60;99.90
13572;DHT22;6857;53.484;10.216;2023-02-02T08:04:36;5.60;99.90
13572;DHT22;6857;53.484;10.216;2023-02-02T08:07:02;5.70;99.90
13572;DHT22;6857;53.484;10.216;2023-02-02T08:09:28;5.80;99.90
13572;DHT22;6857;53.484;10.216;2023-02-02T08:11:53;5.80;99.90
13572;DHT22;6857;53.484;10.216;2023-02-02T08:14:19;5.90;99.90
13572;DHT22;6857;53.484;10.216;2023-02-02T08:16:44;5.90;99.90
13572;DHT22;6857;53.484;10.216;2023-02-02T08:19:10;5.90;99.90
13572;DHT22;6857;53.484;10.216;2023-02-02T08:21:35;5.80;99.90
13572;DHT22;6857;53.484;10.216;2023-02-02T08:24:01;5.90;99.90
13572;DHT22;6857;53.484;10.216;2023-02-02T08:26:29;5.90;99.90
13572;DHT22;6857;53.484;10.216;2023-02-02T08:29:00;5.90;99.90
13572;DHT22;6857;53.484;10.216;2023-02-02T08:31:29;5.80;99.90
13572;DHT22;6857;53.484;10.216;2023-02-02T08:33:55;5.90;99.90
13572;DHT22;6857;53.484;10.216;2023-02-02T08:36:23;5.90;99.90
13572;DHT22;6857;53.484;10.216;2023-02-02T08:38:50;5.90;99.90
13572;DHT22;6857;53.484;10.216;2023-02-02T08:41:18;5.90;99.90
13572;DHT22;6857;53.484;10.216;2023-02-02T08:43:44;5.90;99.90
13572;DHT22;6857;53.484;10.216;2023-02-02T08:46:12;5.90;99.90
13572;DHT22;6857;53.484;10.216;2023-02-02T08:48:39;6.00;99.90
13572;DHT22;6857;53.484;10.216;2023-02-02T08:51:05;6.00;99.90
13572;DHT22;6857;53.484;10.216;2023-02-02T08:53:31;5.90;99.90
13572;DHT22;6857;53.484;10.216;2023-02-02T08:56:03;5.90;99.90
13572;DHT22;6857;53.484;10.216;2023-02-02T08:58:30;5.90;99.90
13572;DHT22;6857;53.484;10.216;2023-02-02T09:01:06;5.90;99.90
13572;DHT22;6857;53.484;10.216;2023-02-02T09:03:33;5.90;99.90
13572;DHT22;6857;53.484;10.216;2023-02-02T09:06:04;5.90;99.90
13572;DHT22;6857;53.484;10.216;2023-02-02T09:08:29;6.00;99.90
13572;DHT22;6857;53.484;10.216;2023-02-02T09:10:55;6.10;99.90
13572;DHT22;6857;53.484;10.216;2023-02-02T09:13:20;6.00;99.90
13572;DHT22;6857;53.484;10.216;2023-02-02T09:15:46;6.10;99.90
13572;DHT22;6857;53.484;10.216;2023-02-02T09:18:11;6.30;99.90
13572;DHT22;6857;53.484;10.216;2023-02-02T09:20:37;6.10;99.90
13572;DHT22;6857;53.484;10.216;2023-02-02T09:23:03;6.20;99.90
13572;DHT22;6857;53.484;10.216;2023-02-02T09:25:29;6.20;99.90
13572;DHT22;6857;53.484;10.216;2023-02-02T09:27:54;6.30;99.90
13572;DHT22;6857;53.484;10.216;2023-02-02T09:30:20;6.40;99.90
13572;DHT22;6857;53.484;10.216;2023-02-02T09:32:48;6.50;99.90
13572;DHT22;6857;53.484;10.216;2023-02-02T09:35:14;6.50;99.90
13572;DHT22;6857;53.484;10.216;2023-02-02T09:37:40;6.50;99.90
13572;DHT22;6857;53.484;10.216;2023-02-02T09:40:06;6.50;99.90
13572;DHT22;6857;53.484;10.216;2023-02-02T09:42:43;6.60;99.90
13572;DHT22;6857;53.484;10.216;2023-02-02T09:45:21;6.50;99.90
13572;DHT22;6857;53.484;10.216;2023-02-02T09:47:54;6.60;99.90
13572;DHT22;6857;53.484;10.216;2023-02-02T09:50:35;6.60;99.90
13572;DHT22;6857;53.484;10.216;2023-02-02T09:55:51;6.60;99.90
13572;DHT22;6857;53.484;10.216;2023-02-02T09:58:25;6.60;99.90
13572;DHT22;6857;53.484;10.216;2023-02-02T10:01:11;6.70;99.90
13572;DHT22;6857;53.484;10.216;2023-02-02T10:12:20;6.80;99.90
13572;DHT22;6857;53.484;10.216;2023-02-02T10:15:32;6.80;99.90
13572;DHT22;6857;53.484;10.216;2023-02-02T10:18:03;7.00;99.90
13572;DHT22;6857;53.484;10.216;2023-02-02T10:20:44;7.00;99.90
13572;DHT22;6857;53.484;10.216;2023-02-02T10:23:19;7.00;99.90
13572;DHT22;6857;53.484;10.216;2023-02-02T10:31:28;7.10;99.90
13572;DHT22;6857;53.484;10.216;2023-02-02T10:34:03;7.10;99.90
13572;DHT22;6857;53.484;10.216;2023-02-02T10:39:34;7.30;99.90
13572;DHT22;6857;53.484;10.216;2023-02-02T10:42:24;7.30;99.90
13572;DHT22;6857;53.484;10.216;2023-02-02T10:45:12;7.40;99.90
13572;DHT22;6857;53.484;10.216;2023-02-02T10:47:39;7.40;99.90
13572;DHT22;6857;53.484;10.216;2023-02-02T10:52:37;7.60;99.90
13572;DHT22;6857;53.484;10.216;2023-02-02T11:03:09;7.80;99.90
13572;DHT22;6857;53.484;10.216;2023-02-02T11:05:35;7.90;99.90
13572;DHT22;6857;53.484;10.216;2023-02-02T11:08:33;8.00;99.90
13572;DHT22;6857;53.484;10.216;2023-02-02T11:11:19;7.90;99.90
13572;DHT22;6857;53.484;10.216;2023-02-02T11:13:55;7.80;99.90
13572;DHT22;6857;53.484;10.216;2023-02-02T11:16:25;7.80;99.90
13572;DHT22;6857;53.484;10.216;2023-02-02T11:21:26;7.70;99.90
13572;DHT22;6857;53.484;10.216;2023-02-02T11:31:34;7.70;99.90
13572;DHT22;6857;53.484;10.216;2023-02-02T11:34:21;7.80;99.90
13572;DHT22;6857;53.484;10.216;2023-02-02T11:37:13;8.10;99.90
13572;DHT22;6857;53.484;10.216;2023-02-02T11:39:43;7.80;99.90
13572;DHT22;6857;53.484;10.216;2023-02-02T11:57:01;7.90;99.90
13572;DHT22;6857;53.484;10.216;2023-02-02T11:59:41;7.90;99.90
13572;DHT22;6857;53.484;10.216;2023-02-02T12:07:27;7.90;99.90
13572;DHT22;6857;53.484;10.216;2023-02-02T12:25:28;8.20;99.90
13572;DHT22;6857;53.484;10.216;2023-02-02T12:31:13;8.50;99.90
13572;DHT22;6857;53.484;10.216;2023-02-02T12:36:42;8.30;99.90
13572;DHT22;6857;53.484;10.216;2023-02-02T12:39:20;8.20;99.90
13572;DHT22;6857;53.484;10.216;2023-02-02T13:08:09;8.20;99.90
13572;DHT22;6857;53.484;10.216;2023-02-02T13:10:39;8.20;99.90
13572;DHT22;6857;53.484;10.216;2023-02-02T13:13:11;8.10;99.90
13572;DHT22;6857;53.484;10.216;2023-02-02T13:23:21;8.10;99.90
13572;DHT22;6857;53.484;10.216;2023-02-02T13:36:05;8.30;99.90
13572;DHT22;6857;53.484;10.216;2023-02-02T13:38:32;8.50;99.90
13572;DHT22;6857;53.484;10.216;2023-02-02T13:49:01;9.10;99.90
13572;DHT22;6857;53.484;10.216;2023-02-02T13:55:04;9.20;99.90
13572;DHT22;6857;53.484;10.216;2023-02-02T13:58:15;9.40;99.90
13572;DHT22;6857;53.484;10.216;2023-02-02T14:00:53;9.60;99.90
13572;DHT22;6857;53.484;10.216;2023-02-02T14:03:30;9.60;99.90
13572;DHT22;6857;53.484;10.216;2023-02-02T14:08:36;9.80;99.90
13572;DHT22;6857;53.484;10.216;2023-02-02T14:11:07;10.00;99.90
13572;DHT22;6857;53.484;10.216;2023-02-02T14:13:49;10.20;99.90
13572;DHT22;6857;53.484;10.216;2023-02-02T14:19:04;10.20;99.90
13572;DHT22;6857;53.484;10.216;2023-02-02T14:23:58;10.00;99.90
13572;DHT22;6857;53.484;10.216;2023-02-02T14:26:44;9.80;99.90
13572;DHT22;6857;53.484;10.216;2023-02-02T14:50:44;8.40;99.90
13572;DHT22;6857;53.484;10.216;2023-02-02T14:56:02;8.20;99.90
13572;DHT22;6857;53.484;10.216;2023-02-02T14:58:38;8.20;99.90
13572;DHT22;6857;53.484;10.216;2023-02-02T15:14:37;8.00;99.90
13572;DHT22;6857;53.484;10.216;2023-02-02T15:17:21;7.90;99.90
13572;DHT22;6857;53.484;10.216;2023-02-02T15:25:24;7.80;99.90
13572;DHT22;6857;53.484;10.216;2023-02-02T15:30:41;7.80;99.90
13572;DHT22;6857;53.484;10.216;2023-02-02T15:33:35;7.70;99.90
13572;DHT22;6857;53.484;10.216;2023-02-02T15:36:10;7.70;99.90
13572;DHT22;6857;53.484;10.216;2023-02-02T15:38:39;7.70;99.90
13572;DHT22;6857;53.484;10.216;2023-02-02T15:41:17;7.90;99.90
13572;DHT22;6857;53.484;10.216;2023-02-02T15:43:45;7.70;99.90
13572;DHT22;6857;53.484;10.216;2023-02-02T15:46:14;7.60;99.90
13572;DHT22;6857;53.484;10.216;2023-02-02T15:48:40;7.60;99.90
13572;DHT22;6857;53.484;10.216;2023-02-02T15:51:15;7.50;99.90
13572;DHT22;6857;53.484;10.216;2023-02-02T15:56:28;7.40;99.90
13572;DHT22;6857;53.484;10.216;2023-02-02T15:58:57;7.30;99.90
13572;DHT22;6857;53.484;10.216;2023-02-02T16:01:25;7.30;99.90
13572;DHT22;6857;53.484;10.216;2023-02-02T16:06:32;7.20;99.90
13572;DHT22;6857;53.484;10.216;2023-02-02T16:09:02;7.20;99.90
13572;DHT22;6857;53.484;10.216;2023-02-02T16:11:28;7.10;99.90
13572;DHT22;6857;53.484;10.216;2023-02-02T16:14:05;7.10;99.90
13572;DHT22;6857;53.484;10.216;2023-02-02T16:16:32;7.00;99.90
13572;DHT22;6857;53.484;10.216;2023-02-02T16:21:36;6.90;99.90
13572;DHT22;6857;53.484;10.216;2023-02-02T16:26:36;6.90;99.90
13572;DHT22;6857;53.484;10.216;2023-02-02T16:29:02;6.90;99.90
13572;DHT22;6857;53.484;10.216;2023-02-02T18:17:33;4.90;99.90
13572;DHT22;6857;53.484;10.216;2023-02-02T18:27:17;5.20;99.90
13572;DHT22;6857;53.484;10.216;2023-02-02T18:44:21;4.70;99.90
13572;DHT22;6857;53.484;10.216;2023-02-02T18:46:51;4.90;99.90
13572;DHT22;6857;53.484;10.216;2023-02-02T18:49:17;4.90;99.90
13572;DHT22;6857;53.484;10.216;2023-02-02T18:54:10;4.80;99.90
13572;DHT22;6857;53.484;10.216;2023-02-02T18:56:36;4.80;99.90
13572;DHT22;6857;53.484;10.216;2023-02-02T18:59:02;4.80;99.90
13572;DHT22;6857;53.484;10.216;2023-02-02T19:01:30;4.90;99.90
13572;DHT22;6857;53.484;10.216;2023-02-02T19:03:55;5.10;99.90
13572;DHT22;6857;53.484;10.216;2023-02-02T19:06:22;4.90;99.90
13572;DHT22;6857;53.484;10.216;2023-02-02T19:09:07;4.90;99.90
13572;DHT22;6857;53.484;10.216;2023-02-02T19:11:41;4.70;99.90
13572;DHT22;6857;53.484;10.216;2023-02-02T19:14:20;4.90;99.90
13572;DHT22;6857;53.484;10.216;2023-02-02T19:16:49;4.90;99.90
13572;DHT22;6857;53.484;10.216;2023-02-02T19:19:27;4.90;99.90
13572;DHT22;6857;53.484;10.216;2023-02-02T19:24:37;4.80;99.90
13572;DHT22;6857;53.484;10.216;2023-02-02T19:27:14;4.90;99.90
13572;DHT22;6857;53.484;10.216;2023-02-02T19:29:40;5.00;99.90
13572;DHT22;6857;53.484;10.216;2023-02-02T19:32:15;4.90;99.90
13572;DHT22;6857;53.484;10.216;2023-02-02T19:34:43;5.00;99.90
13572;DHT22;6857;53.484;10.216;2023-02-02T19:37:27;4.90;99.90
13572;DHT22;6857;53.484;10.216;2023-02-02T19:39:58;4.90;99.90
13572;DHT22;6857;53.484;10.216;2023-02-02T19:42:27;4.90;99.90
13572;DHT22;6857;53.484;10.216;2023-02-02T19:44:52;4.80;99.90
13572;DHT22;6857;53.484;10.216;2023-02-02T19:47:36;4.80;99.90
13572;DHT22;6857;53.484;10.216;2023-02-02T19:50:13;4.70;99.90
13572;DHT22;6857;53.484;10.216;2023-02-02T19:52:41;4.80;99.90
13572;DHT22;6857;53.484;10.216;2023-02-02T19:55:28;4.80;99.90
13572;DHT22;6857;53.484;10.216;2023-02-02T19:58:00;4.70;99.90
13572;DHT22;6857;53.484;10.216;2023-02-02T20:00:35;4.80;99.90
13572;DHT22;6857;53.484;10.216;2023-02-02T20:03:03;4.90;99.90
13572;DHT22;6857;53.484;10.216;2023-02-02T20:05:38;5.00;99.90
13572;DHT22;6857;53.484;10.216;2023-02-02T20:08:39;4.90;99.90
13572;DHT22;6857;53.484;10.216;2023-02-02T20:13:44;5.00;99.90
13572;DHT22;6857;53.484;10.216;2023-02-02T20:16:17;4.90;99.90
13572;DHT22;6857;53.484;10.216;2023-02-02T20:18:48;4.90;99.90
13572;DHT22;6857;53.484;10.216;2023-02-02T20:23:47;5.00;99.90
13572;DHT22;6857;53.484;10.216;2023-02-02T20:26:36;5.00;99.90
13572;DHT22;6857;53.484;10.216;2023-02-02T20:29:20;5.00;99.90
13572;DHT22;6857;53.484;10.216;2023-02-02T20:31:51;5.10;99.90
13572;DHT22;6857;53.484;10.216;2023-02-02T20:34:27;5.20;99.90
13572;DHT22;6857;53.484;10.216;2023-02-02T20:40:23;5.30;99.90
13572;DHT22;6857;53.484;10.216;2023-02-02T20:42:47;5.20;99.90
13572;DHT22;6857;53.484;10.216;2023-02-02T20:45:13;5.20;99.90
13572;DHT22;6857;53.484;10.216;2023-02-02T20:47:42;5.30;99.90
13572;DHT22;6857;53.484;10.216;2023-02-02T20:50:08;5.30;99.90
13572;DHT22;6857;53.484;10.216;2023-02-02T20:52:34;5.30;99.90
13572;DHT22;6857;53.484;10.216;2023-02-02T20:55:00;5.30;99.90
13572;DHT22;6857;53.484;10.216;2023-02-02T20:57:26;5.30;99.90
13572;DHT22;6857;53.484;10.216;2023-02-02T20:59:51;5.20;99.90
13572;DHT22;6857;53.484;10.216;2023-02-02T21:02:23;5.20;99.90
13572;DHT22;6857;53.484;10.216;2023-02-02T21:04:49;5.00;99.90
13572;DHT22;6857;53.484;10.216;2023-02-02T21:07:17;5.10;99.90
13572;DHT22;6857;53.484;10.216;2023-02-02T21:09:43;5.00;99.90
13572;DHT22;6857;53.484;10.216;2023-02-02T21:12:09;5.10;99.90
13572;DHT22;6857;53.484;10.216;2023-02-02T21:14:35;5.00;99.90
13572;DHT22;6857;53.484;10.216;2023-02-02T21:17:00;5.10;99.90
13572;DHT22;6857;53.484;10.216;2023-02-02T21:19:26;5.00;99.90
13572;DHT22;6857;53.484;10.216;2023-02-02T21:21:52;5.00;99.90
13572;DHT22;6857;53.484;10.216;2023-02-02T21:24:17;5.00;99.90
13572;DHT22;6857;53.484;10.216;2023-02-02T21:26:43;4.90;99.90
13572;DHT22;6857;53.484;10.216;2023-02-02T21:29:08;5.00;99.90
13572;DHT22;6857;53.484;10.216;2023-02-02T21:31:35;4.90;99.90
13572;DHT22;6857;53.484;10.216;2023-02-02T21:34:04;4.90;99.90
13572;DHT22;6857;53.484;10.216;2023-02-02T21:36:36;4.80;99.90
13572;DHT22;6857;53.484;10.216;2023-02-02T21:39:21;4.80;99.90
13572;DHT22;6857;53.484;10.216;2023-02-02T21:44:38;4.80;99.90
13572;DHT22;6857;53.484;10.216;2023-02-02T21:47:28;4.80;99.90
13572;DHT22;6857;53.484;10.216;2023-02-02T21:50:00;4.70;99.90
13572;DHT22;6857;53.484;10.216;2023-02-02T21:52:31;4.80;99.90
13572;DHT22;6857;53.484;10.216;2023-02-02T21:54:57;4.80;99.90
13572;DHT22;6857;53.484;10.216;2023-02-02T21:57:34;4.80;99.90
13572;DHT22;6857;53.484;10.216;2023-02-02T22:00:16;4.80;99.90
13572;DHT22;6857;53.484;10.216;2023-02-02T22:02:47;4.80;99.90
13572;DHT22;6857;53.484;10.216;2023-02-02T22:05:18;4.70;99.90